sensor_id;sensor_type;location;lat;lon;timestamp;P1;durP1;ratioP1;P2;durP2;ratioP2
2570;SDS011;1295;51.130;6.732;2022-08-01T00:02:06;116.60;;;105.63;;
2570;SDS011;1295;51.130;6.732;2022-08-01T00:04:32;133.13;;;121.93;;
2570;SDS011;1295;51.130;6.732;2022-08-01T00:06:57;150.10;;;138.37;;
2570;SDS011;1295;51.130;6.732;2022-08-01T00:09:23;115.17;;;102.73;;
2570;SDS011;1295;51.130;6.732;2022-08-01T00:11:49;112.60;;;101.03;;
2570;SDS011;1295;51.130;6.732;2022-08-01T00:14:14;126.67;;;115.93;;
2570;SDS011;1295;51.130;6.732;2022-08-01T00:16:40;115.13;;;104.53;;
2570;SDS011;1295;51.130;6.732;2022-08-01T00:19:06;114.03;;;102.37;;
2570;SDS011;1295;51.130;6.732;2022-08-01T00:21:31;127.13;;;116.20;;
2570;SDS011;1295;51.130;6.732;2022-08-01T00:23:57;110.20;;;98.97;;
2570;SDS011;1295;51.130;6.732;2022-08-01T00:26:23;73.57;;;53.20;;
2570;SDS011;1295;51.130;6.732;2022-08-01T00:28:48;110.80;;;100.00;;
2570;SDS011;1295;51.130;6.732;2022-08-01T00:31:14;112.77;;;101.47;;
2570;SDS011;1295;51.130;6.732;2022-08-01T00:33:40;140.00;;;128.67;;
2570;SDS011;1295;51.130;6.732;2022-08-01T00:36:05;81.83;;;61.17;;
2570;SDS011;1295;51.130;6.732;2022-08-01T00:38:31;112.07;;;100.93;;
2570;SDS011;1295;51.130;6.732;2022-08-01T00:40:57;87.57;;;72.17;;
2570;SDS011;1295;51.130;6.732;2022-08-01T00:43:23;79.97;;;60.67;;
2570;SDS011;1295;51.130;6.732;2022-08-01T00:45:49;76.27;;;55.83;;
2570;SDS011;1295;51.130;6.732;2022-08-01T00:48:15;89.87;;;75.03;;
2570;SDS011;1295;51.130;6.732;2022-08-01T00:50:40;74.07;;;51.23;;
2570;SDS011;1295;51.130;6.732;2022-08-01T00:53:06;69.07;;;39.03;;
2570;SDS011;1295;51.130;6.732;2022-08-01T00:55:32;65.27;;;29.90;;
2570;SDS011;1295;51.130;6.732;2022-08-01T00:57:58;87.03;;;73.43;;
2570;SDS011;1295;51.130;6.732;2022-08-01T01:00:24;73.23;;;43.13;;
2570;SDS011;1295;51.130;6.732;2022-08-01T01:02:50;71.00;;;44.50;;
2570;SDS011;1295;51.130;6.732;2022-08-01T01:05:15;77.63;;;54.57;;
2570;SDS011;1295;51.130;6.732;2022-08-01T01:07:48;87.97;;;71.77;;
2570;SDS011;1295;51.130;6.732;2022-08-01T01:10:22;82.57;;;62.63;;
2570;SDS011;1295;51.130;6.732;2022-08-01T01:12:55;75.90;;;59.63;;
2570;SDS011;1295;51.130;6.732;2022-08-01T01:15:22;66.27;;;32.77;;
2570;SDS011;1295;51.130;6.732;2022-08-01T01:17:57;98.70;;;86.17;;
2570;SDS011;1295;51.130;6.732;2022-08-01T01:20:26;84.63;;;67.87;;
2570;SDS011;1295;51.130;6.732;2022-08-01T01:25:39;67.30;;;36.13;;
2570;SDS011;1295;51.130;6.732;2022-08-01T01:28:19;69.47;;;44.47;;
2570;SDS011;1295;51.130;6.732;2022-08-01T01:31:00;69.83;;;42.50;;
2570;SDS011;1295;51.130;6.732;2022-08-01T01:33:27;73.83;;;55.70;;
2570;SDS011;1295;51.130;6.732;2022-08-01T01:35:53;81.53;;;62.90;;
2570;SDS011;1295;51.130;6.732;2022-08-01T01:38:21;97.03;;;84.70;;
2570;SDS011;1295;51.130;6.732;2022-08-01T01:40:46;89.47;;;76.07;;
2570;SDS011;1295;51.130;6.732;2022-08-01T01:43:11;93.83;;;80.27;;
2570;SDS011;1295;51.130;6.732;2022-08-01T01:45:38;71.70;;;35.90;;
2570;SDS011;1295;51.130;6.732;2022-08-01T01:48:04;87.30;;;70.33;;
2570;SDS011;1295;51.130;6.732;2022-08-01T01:50:29;90.03;;;74.83;;
2570;SDS011;1295;51.130;6.732;2022-08-01T01:52:55;69.07;;;42.87;;
2570;SDS011;1295;51.130;6.732;2022-08-01T01:55:21;121.77;;;111.13;;
2570;SDS011;1295;51.130;6.732;2022-08-01T01:57:47;69.47;;;35.80;;
2570;SDS011;1295;51.130;6.732;2022-08-01T02:00:15;153.03;;;140.90;;
2570;SDS011;1295;51.130;6.732;2022-08-01T02:02:40;143.60;;;132.10;;
2570;SDS011;1295;51.130;6.732;2022-08-01T02:05:07;71.30;;;45.87;;
2570;SDS011;1295;51.130;6.732;2022-08-01T02:07:33;137.97;;;126.67;;
2570;SDS011;1295;51.130;6.732;2022-08-01T02:09:59;154.37;;;142.50;;
2570;SDS011;1295;51.130;6.732;2022-08-01T02:12:25;168.03;;;155.30;;
2570;SDS011;1295;51.130;6.732;2022-08-01T02:14:51;81.97;;;65.70;;
2570;SDS011;1295;51.130;6.732;2022-08-01T02:17:17;144.13;;;132.67;;
2570;SDS011;1295;51.130;6.732;2022-08-01T02:19:42;140.70;;;129.10;;
2570;SDS011;1295;51.130;6.732;2022-08-01T02:22:09;145.13;;;133.43;;
2570;SDS011;1295;51.130;6.732;2022-08-01T02:24:38;122.97;;;112.23;;
2570;SDS011;1295;51.130;6.732;2022-08-01T02:27:22;132.53;;;121.17;;
2570;SDS011;1295;51.130;6.732;2022-08-01T02:29:50;145.27;;;133.77;;
2570;SDS011;1295;51.130;6.732;2022-08-01T02:32:14;144.93;;;133.20;;
2570;SDS011;1295;51.130;6.732;2022-08-01T02:34:40;151.67;;;139.80;;
2570;SDS011;1295;51.130;6.732;2022-08-01T02:37:05;154.47;;;142.17;;
2570;SDS011;1295;51.130;6.732;2022-08-01T02:39:31;158.00;;;145.57;;
2570;SDS011;1295;51.130;6.732;2022-08-01T02:41:57;152.13;;;140.23;;
2570;SDS011;1295;51.130;6.732;2022-08-01T02:44:24;179.97;;;166.63;;
2570;SDS011;1295;51.130;6.732;2022-08-01T02:46:50;162.73;;;150.57;;
2570;SDS011;1295;51.130;6.732;2022-08-01T02:49:14;157.73;;;145.53;;
2570;SDS011;1295;51.130;6.732;2022-08-01T02:51:40;172.20;;;159.30;;
2570;SDS011;1295;51.130;6.732;2022-08-01T02:54:07;200.90;;;187.30;;
2570;SDS011;1295;51.130;6.732;2022-08-01T02:56:32;212.40;;;197.90;;
2570;SDS011;1295;51.130;6.732;2022-08-01T02:59:02;179.57;;;166.30;;
2570;SDS011;1295;51.130;6.732;2022-08-01T03:01:26;248.10;;;231.97;;
2570;SDS011;1295;51.130;6.732;2022-08-01T03:03:52;150.60;;;138.50;;
2570;SDS011;1295;51.130;6.732;2022-08-01T03:06:23;170.53;;;157.47;;
2570;SDS011;1295;51.130;6.732;2022-08-01T03:08:48;223.83;;;208.53;;
2570;SDS011;1295;51.130;6.732;2022-08-01T03:11:14;221.17;;;206.00;;
2570;SDS011;1295;51.130;6.732;2022-08-01T03:13:40;215.07;;;200.57;;
2570;SDS011;1295;51.130;6.732;2022-08-01T03:16:05;265.40;;;248.47;;
2570;SDS011;1295;51.130;6.732;2022-08-01T03:18:31;216.30;;;201.40;;
2570;SDS011;1295;51.130;6.732;2022-08-01T03:20:56;200.00;;;186.17;;
2570;SDS011;1295;51.130;6.732;2022-08-01T03:23:22;217.57;;;202.53;;
2570;SDS011;1295;51.130;6.732;2022-08-01T03:25:48;240.53;;;224.63;;
2570;SDS011;1295;51.130;6.732;2022-08-01T03:28:13;210.57;;;196.10;;
2570;SDS011;1295;51.130;6.732;2022-08-01T03:30:39;219.10;;;204.03;;
2570;SDS011;1295;51.130;6.732;2022-08-01T03:33:05;233.93;;;218.10;;
2570;SDS011;1295;51.130;6.732;2022-08-01T03:35:33;184.03;;;170.40;;
2570;SDS011;1295;51.130;6.732;2022-08-01T03:37:56;202.00;;;187.93;;
2570;SDS011;1295;51.130;6.732;2022-08-01T03:40:24;189.30;;;175.57;;
2570;SDS011;1295;51.130;6.732;2022-08-01T03:42:50;185.43;;;172.27;;
2570;SDS011;1295;51.130;6.732;2022-08-01T03:45:22;144.00;;;131.87;;
2570;SDS011;1295;51.130;6.732;2022-08-01T03:47:49;160.47;;;147.93;;
2570;SDS011;1295;51.130;6.732;2022-08-01T03:50:14;152.73;;;139.87;;
2570;SDS011;1295;51.130;6.732;2022-08-01T03:52:41;126.83;;;115.40;;
2570;SDS011;1295;51.130;6.732;2022-08-01T03:55:06;123.63;;;112.23;;
2570;SDS011;1295;51.130;6.732;2022-08-01T03:57:33;143.47;;;131.57;;
2570;SDS011;1295;51.130;6.732;2022-08-01T03:59:59;129.30;;;117.70;;
2570;SDS011;1295;51.130;6.732;2022-08-01T04:02:25;150.63;;;138.37;;
2570;SDS011;1295;51.130;6.732;2022-08-01T04:04:51;129.70;;;118.47;;
2570;SDS011;1295;51.130;6.732;2022-08-01T04:07:37;123.63;;;112.47;;
2570;SDS011;1295;51.130;6.732;2022-08-01T04:10:03;111.87;;;100.97;;
2570;SDS011;1295;51.130;6.732;2022-08-01T04:12:28;130.67;;;119.40;;
2570;SDS011;1295;51.130;6.732;2022-08-01T04:14:54;106.73;;;96.00;;
2570;SDS011;1295;51.130;6.732;2022-08-01T04:17:20;111.27;;;100.53;;
2570;SDS011;1295;51.130;6.732;2022-08-01T04:19:46;96.97;;;82.73;;
2570;SDS011;1295;51.130;6.732;2022-08-01T04:22:13;102.20;;;91.50;;
2570;SDS011;1295;51.130;6.732;2022-08-01T04:24:38;95.97;;;84.43;;
2570;SDS011;1295;51.130;6.732;2022-08-01T04:27:04;142.67;;;130.90;;
2570;SDS011;1295;51.130;6.732;2022-08-01T04:29:30;87.87;;;69.83;;
2570;SDS011;1295;51.130;6.732;2022-08-01T04:31:56;84.93;;;62.23;;
2570;SDS011;1295;51.130;6.732;2022-08-01T04:34:22;114.03;;;103.13;;
2570;SDS011;1295;51.130;6.732;2022-08-01T04:36:48;84.40;;;58.43;;
2570;SDS011;1295;51.130;6.732;2022-08-01T04:39:13;86.67;;;67.67;;
2570;SDS011;1295;51.130;6.732;2022-08-01T04:41:39;84.67;;;59.63;;
2570;SDS011;1295;51.130;6.732;2022-08-01T04:44:05;78.33;;;37.43;;
2570;SDS011;1295;51.130;6.732;2022-08-01T04:46:30;77.63;;;44.57;;
2570;SDS011;1295;51.130;6.732;2022-08-01T04:48:57;78.80;;;38.23;;
2570;SDS011;1295;51.130;6.732;2022-08-01T04:51:23;76.03;;;33.50;;
2570;SDS011;1295;51.130;6.732;2022-08-01T04:53:48;81.90;;;44.23;;
2570;SDS011;1295;51.130;6.732;2022-08-01T04:56:14;76.47;;;34.53;;
2570;SDS011;1295;51.130;6.732;2022-08-01T04:58:40;84.03;;;46.27;;
2570;SDS011;1295;51.130;6.732;2022-08-01T05:01:06;80.40;;;39.63;;
2570;SDS011;1295;51.130;6.732;2022-08-01T05:03:31;77.37;;;37.57;;
2570;SDS011;1295;51.130;6.732;2022-08-01T05:05:58;76.90;;;40.27;;
2570;SDS011;1295;51.130;6.732;2022-08-01T05:08:24;82.53;;;43.57;;
2570;SDS011;1295;51.130;6.732;2022-08-01T05:10:50;81.53;;;45.57;;
2570;SDS011;1295;51.130;6.732;2022-08-01T05:13:15;80.40;;;39.07;;
2570;SDS011;1295;51.130;6.732;2022-08-01T05:15:41;81.10;;;42.67;;
2570;SDS011;1295;51.130;6.732;2022-08-01T05:18:07;80.27;;;43.63;;
2570;SDS011;1295;51.130;6.732;2022-08-01T05:20:32;79.03;;;42.33;;
2570;SDS011;1295;51.130;6.732;2022-08-01T05:22:58;91.93;;;61.17;;
2570;SDS011;1295;51.130;6.732;2022-08-01T05:25:24;77.57;;;41.53;;
2570;SDS011;1295;51.130;6.732;2022-08-01T05:27:49;88.30;;;70.63;;
2570;SDS011;1295;51.130;6.732;2022-08-01T05:30:15;105.60;;;88.30;;
2570;SDS011;1295;51.130;6.732;2022-08-01T05:32:41;97.00;;;83.60;;
2570;SDS011;1295;51.130;6.732;2022-08-01T05:35:07;102.00;;;86.83;;
2570;SDS011;1295;51.130;6.732;2022-08-01T05:37:34;118.27;;;106.93;;
2570;SDS011;1295;51.130;6.732;2022-08-01T05:39:59;113.87;;;102.07;;
2570;SDS011;1295;51.130;6.732;2022-08-01T05:42:25;167.63;;;154.03;;
2570;SDS011;1295;51.130;6.732;2022-08-01T05:44:51;202.73;;;187.47;;
2570;SDS011;1295;51.130;6.732;2022-08-01T05:47:17;234.87;;;218.53;;
2570;SDS011;1295;51.130;6.732;2022-08-01T05:49:43;275.53;;;256.93;;
2570;SDS011;1295;51.130;6.732;2022-08-01T05:52:09;259.53;;;242.67;;
2570;SDS011;1295;51.130;6.732;2022-08-01T05:54:35;426.87;;;400.50;;
2570;SDS011;1295;51.130;6.732;2022-08-01T05:57:01;407.70;;;382.03;;
2570;SDS011;1295;51.130;6.732;2022-08-01T05:59:27;411.00;;;386.23;;
2570;SDS011;1295;51.130;6.732;2022-08-01T06:01:53;335.13;;;314.13;;
2570;SDS011;1295;51.130;6.732;2022-08-01T06:04:18;332.90;;;310.87;;
2570;SDS011;1295;51.130;6.732;2022-08-01T06:06:44;318.20;;;297.27;;
2570;SDS011;1295;51.130;6.732;2022-08-01T06:09:10;298.47;;;277.80;;
2570;SDS011;1295;51.130;6.732;2022-08-01T06:11:36;138.30;;;123.70;;
2570;SDS011;1295;51.130;6.732;2022-08-01T06:14:02;209.17;;;192.90;;
2570;SDS011;1295;51.130;6.732;2022-08-01T06:16:27;250.27;;;232.50;;
2570;SDS011;1295;51.130;6.732;2022-08-01T06:18:54;295.13;;;275.83;;
2570;SDS011;1295;51.130;6.732;2022-08-01T06:21:19;338.43;;;318.20;;
2570;SDS011;1295;51.130;6.732;2022-08-01T06:23:45;303.57;;;285.03;;
2570;SDS011;1295;51.130;6.732;2022-08-01T06:26:11;322.47;;;303.33;;
2570;SDS011;1295;51.130;6.732;2022-08-01T06:28:37;187.30;;;174.10;;
2570;SDS011;1295;51.130;6.732;2022-08-01T06:31:03;350.07;;;328.70;;
2570;SDS011;1295;51.130;6.732;2022-08-01T06:33:29;243.37;;;227.27;;
2570;SDS011;1295;51.130;6.732;2022-08-01T06:35:54;367.13;;;344.93;;
2570;SDS011;1295;51.130;6.732;2022-08-01T06:38:21;419.97;;;394.20;;
2570;SDS011;1295;51.130;6.732;2022-08-01T06:40:47;318.57;;;299.57;;
2570;SDS011;1295;51.130;6.732;2022-08-01T06:43:13;356.83;;;335.80;;
2570;SDS011;1295;51.130;6.732;2022-08-01T06:45:40;465.07;;;438.37;;
2570;SDS011;1295;51.130;6.732;2022-08-01T06:48:05;378.27;;;356.17;;
2570;SDS011;1295;51.130;6.732;2022-08-01T06:50:32;427.43;;;403.00;;
2570;SDS011;1295;51.130;6.732;2022-08-01T06:52:57;314.10;;;295.73;;
2570;SDS011;1295;51.130;6.732;2022-08-01T06:55:24;450.10;;;424.20;;
2570;SDS011;1295;51.130;6.732;2022-08-01T06:57:50;350.90;;;329.53;;
2570;SDS011;1295;51.130;6.732;2022-08-01T07:00:16;387.40;;;364.20;;
2570;SDS011;1295;51.130;6.732;2022-08-01T07:02:42;419.63;;;395.40;;
2570;SDS011;1295;51.130;6.732;2022-08-01T07:05:08;330.20;;;310.17;;
2570;SDS011;1295;51.130;6.732;2022-08-01T07:07:35;353.30;;;332.07;;
2570;SDS011;1295;51.130;6.732;2022-08-01T07:10:00;291.63;;;272.87;;
2570;SDS011;1295;51.130;6.732;2022-08-01T07:12:26;259.23;;;241.93;;
2570;SDS011;1295;51.130;6.732;2022-08-01T07:14:52;278.07;;;259.23;;
2570;SDS011;1295;51.130;6.732;2022-08-01T07:17:17;137.87;;;125.23;;
2570;SDS011;1295;51.130;6.732;2022-08-01T07:19:43;295.70;;;278.10;;
2570;SDS011;1295;51.130;6.732;2022-08-01T07:22:09;297.40;;;279.27;;
2570;SDS011;1295;51.130;6.732;2022-08-01T07:24:34;247.03;;;229.83;;
2570;SDS011;1295;51.130;6.732;2022-08-01T07:27:01;236.27;;;219.90;;
2570;SDS011;1295;51.130;6.732;2022-08-01T07:29:26;279.20;;;260.80;;
2570;SDS011;1295;51.130;6.732;2022-08-01T07:31:53;318.47;;;298.53;;
2570;SDS011;1295;51.130;6.732;2022-08-01T07:34:18;184.90;;;170.30;;
2570;SDS011;1295;51.130;6.732;2022-08-01T07:36:44;384.13;;;360.47;;
2570;SDS011;1295;51.130;6.732;2022-08-01T07:39:09;252.77;;;235.93;;
2570;SDS011;1295;51.130;6.732;2022-08-01T07:41:36;293.00;;;274.07;;
2570;SDS011;1295;51.130;6.732;2022-08-01T07:44:02;272.43;;;254.37;;
2570;SDS011;1295;51.130;6.732;2022-08-01T07:46:27;214.97;;;199.37;;
2570;SDS011;1295;51.130;6.732;2022-08-01T07:48:53;323.00;;;302.53;;
2570;SDS011;1295;51.130;6.732;2022-08-01T07:51:19;272.63;;;254.93;;
2570;SDS011;1295;51.130;6.732;2022-08-01T07:53:44;260.43;;;242.97;;
2570;SDS011;1295;51.130;6.732;2022-08-01T07:56:10;334.40;;;314.37;;
2570;SDS011;1295;51.130;6.732;2022-08-01T07:58:36;364.97;;;343.47;;
2570;SDS011;1295;51.130;6.732;2022-08-01T08:01:01;312.03;;;292.33;;
2570;SDS011;1295;51.130;6.732;2022-08-01T08:03:27;329.97;;;309.77;;
2570;SDS011;1295;51.130;6.732;2022-08-01T08:05:53;237.87;;;221.20;;
2570;SDS011;1295;51.130;6.732;2022-08-01T08:08:18;278.50;;;260.20;;
2570;SDS011;1295;51.130;6.732;2022-08-01T08:10:44;320.80;;;301.60;;
2570;SDS011;1295;51.130;6.732;2022-08-01T08:13:10;272.77;;;255.13;;
2570;SDS011;1295;51.130;6.732;2022-08-01T08:15:35;216.83;;;201.47;;
2570;SDS011;1295;51.130;6.732;2022-08-01T08:18:02;253.03;;;235.80;;
2570;SDS011;1295;51.130;6.732;2022-08-01T08:20:27;356.63;;;335.43;;
2570;SDS011;1295;51.130;6.732;2022-08-01T08:22:53;352.63;;;331.80;;
2570;SDS011;1295;51.130;6.732;2022-08-01T08:25:24;174.53;;;160.70;;
2570;SDS011;1295;51.130;6.732;2022-08-01T08:27:50;165.70;;;152.57;;
2570;SDS011;1295;51.130;6.732;2022-08-01T08:30:16;185.73;;;172.03;;
2570;SDS011;1295;51.130;6.732;2022-08-01T08:32:42;346.33;;;326.23;;
2570;SDS011;1295;51.130;6.732;2022-08-01T08:35:08;287.50;;;270.10;;
2570;SDS011;1295;51.130;6.732;2022-08-01T08:37:34;213.13;;;198.07;;
2570;SDS011;1295;51.130;6.732;2022-08-01T08:39:59;286.63;;;268.93;;
2570;SDS011;1295;51.130;6.732;2022-08-01T08:42:25;252.47;;;235.60;;
2570;SDS011;1295;51.130;6.732;2022-08-01T08:44:51;303.67;;;285.57;;
2570;SDS011;1295;51.130;6.732;2022-08-01T08:47:16;238.33;;;222.37;;
2570;SDS011;1295;51.130;6.732;2022-08-01T08:49:43;347.17;;;326.73;;
2570;SDS011;1295;51.130;6.732;2022-08-01T08:52:08;215.13;;;199.73;;
2570;SDS011;1295;51.130;6.732;2022-08-01T08:54:33;298.90;;;281.57;;
2570;SDS011;1295;51.130;6.732;2022-08-01T08:57:00;260.40;;;244.67;;
2570;SDS011;1295;51.130;6.732;2022-08-01T08:59:26;293.13;;;276.30;;
2570;SDS011;1295;51.130;6.732;2022-08-01T09:01:52;205.57;;;191.60;;
2570;SDS011;1295;51.130;6.732;2022-08-01T09:04:17;217.50;;;202.63;;
2570;SDS011;1295;51.130;6.732;2022-08-01T09:06:43;305.43;;;286.67;;
2570;SDS011;1295;51.130;6.732;2022-08-01T09:09:09;160.63;;;148.00;;
2570;SDS011;1295;51.130;6.732;2022-08-01T09:11:34;155.23;;;143.23;;
2570;SDS011;1295;51.130;6.732;2022-08-01T09:14:10;193.97;;;180.27;;
2570;SDS011;1295;51.130;6.732;2022-08-01T09:16:38;150.97;;;138.30;;
2570;SDS011;1295;51.130;6.732;2022-08-01T09:19:08;202.77;;;188.57;;
2570;SDS011;1295;51.130;6.732;2022-08-01T09:21:40;184.27;;;170.67;;
2570;SDS011;1295;51.130;6.732;2022-08-01T09:24:15;159.93;;;147.40;;
2570;SDS011;1295;51.130;6.732;2022-08-01T09:26:32;124.00;;;112.97;;
2570;SDS011;1295;51.130;6.732;2022-08-01T09:28:58;214.50;;;199.90;;
2570;SDS011;1295;51.130;6.732;2022-08-01T09:31:23;170.20;;;157.40;;
2570;SDS011;1295;51.130;6.732;2022-08-01T09:33:55;95.83;;;85.67;;
2570;SDS011;1295;51.130;6.732;2022-08-01T09:36:21;191.23;;;177.50;;
2570;SDS011;1295;51.130;6.732;2022-08-01T09:38:47;117.20;;;106.10;;
2570;SDS011;1295;51.130;6.732;2022-08-01T09:41:13;131.53;;;120.03;;
2570;SDS011;1295;51.130;6.732;2022-08-01T09:43:39;141.33;;;129.53;;
2570;SDS011;1295;51.130;6.732;2022-08-01T09:46:07;159.00;;;146.70;;
2570;SDS011;1295;51.130;6.732;2022-08-01T09:48:30;207.17;;;193.13;;
2570;SDS011;1295;51.130;6.732;2022-08-01T09:50:57;183.07;;;170.20;;
2570;SDS011;1295;51.130;6.732;2022-08-01T09:53:22;148.83;;;136.93;;
2570;SDS011;1295;51.130;6.732;2022-08-01T09:55:47;62.10;;;37.57;;
2570;SDS011;1295;51.130;6.732;2022-08-01T09:58:13;140.50;;;128.67;;
2570;SDS011;1295;51.130;6.732;2022-08-01T10:00:39;97.27;;;86.83;;
2570;SDS011;1295;51.130;6.732;2022-08-01T10:05:40;112.07;;;101.30;;
2570;SDS011;1295;51.130;6.732;2022-08-01T10:08:05;181.47;;;168.40;;
2570;SDS011;1295;51.130;6.732;2022-08-01T10:10:31;193.10;;;179.63;;
2570;SDS011;1295;51.130;6.732;2022-08-01T10:12:57;177.13;;;163.80;;
2570;SDS011;1295;51.130;6.732;2022-08-01T10:15:23;184.70;;;171.20;;
2570;SDS011;1295;51.130;6.732;2022-08-01T10:17:55;107.83;;;96.57;;
2570;SDS011;1295;51.130;6.732;2022-08-01T10:20:20;122.97;;;111.93;;
2570;SDS011;1295;51.130;6.732;2022-08-01T10:22:45;266.13;;;249.10;;
2570;SDS011;1295;51.130;6.732;2022-08-01T10:25:11;157.23;;;144.90;;
2570;SDS011;1295;51.130;6.732;2022-08-01T10:27:37;203.33;;;189.27;;
2570;SDS011;1295;51.130;6.732;2022-08-01T10:30:03;136.10;;;124.33;;
2570;SDS011;1295;51.130;6.732;2022-08-01T10:32:30;176.70;;;162.93;;
2570;SDS011;1295;51.130;6.732;2022-08-01T10:34:56;299.47;;;280.93;;
2570;SDS011;1295;51.130;6.732;2022-08-01T10:37:22;154.50;;;142.20;;
2570;SDS011;1295;51.130;6.732;2022-08-01T10:39:48;222.77;;;207.87;;
2570;SDS011;1295;51.130;6.732;2022-08-01T10:42:13;280.33;;;262.73;;
2570;SDS011;1295;51.130;6.732;2022-08-01T10:44:39;98.73;;;86.60;;
2570;SDS011;1295;51.130;6.732;2022-08-01T10:47:10;91.23;;;81.83;;
2570;SDS011;1295;51.130;6.732;2022-08-01T10:49:36;256.57;;;239.83;;
2570;SDS011;1295;51.130;6.732;2022-08-01T10:52:01;264.57;;;247.43;;
2570;SDS011;1295;51.130;6.732;2022-08-01T10:54:26;200.67;;;186.17;;
2570;SDS011;1295;51.130;6.732;2022-08-01T10:56:52;217.90;;;202.43;;
2570;SDS011;1295;51.130;6.732;2022-08-01T10:59:21;242.57;;;226.73;;
2570;SDS011;1295;51.130;6.732;2022-08-01T11:01:55;135.90;;;124.30;;
2570;SDS011;1295;51.130;6.732;2022-08-01T11:04:19;115.70;;;104.93;;
2570;SDS011;1295;51.130;6.732;2022-08-01T11:06:49;74.73;;;48.10;;
2570;SDS011;1295;51.130;6.732;2022-08-01T11:09:19;185.57;;;171.87;;
2570;SDS011;1295;51.130;6.732;2022-08-01T11:14:19;157.30;;;144.20;;
2570;SDS011;1295;51.130;6.732;2022-08-01T11:16:45;319.33;;;298.13;;
2570;SDS011;1295;51.130;6.732;2022-08-01T11:19:12;101.97;;;88.30;;
2570;SDS011;1295;51.130;6.732;2022-08-01T11:24:15;225.83;;;210.27;;
2570;SDS011;1295;51.130;6.732;2022-08-01T11:26:41;335.77;;;315.43;;
2570;SDS011;1295;51.130;6.732;2022-08-01T11:29:10;342.03;;;321.43;;
2570;SDS011;1295;51.130;6.732;2022-08-01T11:31:35;324.30;;;305.20;;
2570;SDS011;1295;51.130;6.732;2022-08-01T11:34:01;148.53;;;135.93;;
2570;SDS011;1295;51.130;6.732;2022-08-01T11:36:27;220.43;;;205.03;;
2570;SDS011;1295;51.130;6.732;2022-08-01T11:39:12;193.53;;;179.43;;
2570;SDS011;1295;51.130;6.732;2022-08-01T11:41:37;357.17;;;335.73;;
2570;SDS011;1295;51.130;6.732;2022-08-01T11:44:05;82.63;;;63.70;;
2570;SDS011;1295;51.130;6.732;2022-08-01T11:51:47;215.63;;;200.17;;
2570;SDS011;1295;51.130;6.732;2022-08-01T11:54:13;160.27;;;147.47;;
2570;SDS011;1295;51.130;6.732;2022-08-01T11:56:39;80.47;;;60.97;;
2570;SDS011;1295;51.130;6.732;2022-08-01T11:59:05;65.03;;;37.73;;
2570;SDS011;1295;51.130;6.732;2022-08-01T12:01:30;80.53;;;65.20;;
2570;SDS011;1295;51.130;6.732;2022-08-01T12:03:56;75.33;;;51.40;;
2570;SDS011;1295;51.130;6.732;2022-08-01T12:06:27;66.70;;;31.53;;
2570;SDS011;1295;51.130;6.732;2022-08-01T12:08:51;76.70;;;65.17;;
2570;SDS011;1295;51.130;6.732;2022-08-01T12:11:17;62.70;;;38.63;;
2570;SDS011;1295;51.130;6.732;2022-08-01T12:13:43;67.77;;;30.63;;
2570;SDS011;1295;51.130;6.732;2022-08-01T12:16:09;73.73;;;51.93;;
2570;SDS011;1295;51.130;6.732;2022-08-01T12:18:38;84.50;;;75.47;;
2570;SDS011;1295;51.130;6.732;2022-08-01T12:21:06;57.50;;;20.90;;
2570;SDS011;1295;51.130;6.732;2022-08-01T12:23:31;75.67;;;53.93;;
2570;SDS011;1295;51.130;6.732;2022-08-01T12:25:58;66.93;;;33.53;;
2570;SDS011;1295;51.130;6.732;2022-08-01T12:28:24;72.73;;;42.93;;
2570;SDS011;1295;51.130;6.732;2022-08-01T12:30:49;67.07;;;40.43;;
2570;SDS011;1295;51.130;6.732;2022-08-01T12:33:17;73.47;;;48.97;;
2570;SDS011;1295;51.130;6.732;2022-08-01T12:35:41;63.00;;;27.73;;
2570;SDS011;1295;51.130;6.732;2022-08-01T12:38:13;54.93;;;12.33;;
2570;SDS011;1295;51.130;6.732;2022-08-01T12:40:41;54.30;;;15.00;;
2570;SDS011;1295;51.130;6.732;2022-08-01T12:43:07;288.60;;;269.80;;
2570;SDS011;1295;51.130;6.732;2022-08-01T12:45:36;75.57;;;54.90;;
2570;SDS011;1295;51.130;6.732;2022-08-01T12:48:01;56.10;;;12.03;;
2570;SDS011;1295;51.130;6.732;2022-08-01T12:50:28;63.37;;;30.17;;
2570;SDS011;1295;51.130;6.732;2022-08-01T12:52:53;53.80;;;11.20;;
2570;SDS011;1295;51.130;6.732;2022-08-01T12:55:19;53.67;;;10.30;;
2570;SDS011;1295;51.130;6.732;2022-08-01T12:57:46;55.90;;;15.93;;
2570;SDS011;1295;51.130;6.732;2022-08-01T13:00:16;57.97;;;17.00;;
2570;SDS011;1295;51.130;6.732;2022-08-01T13:02:41;62.90;;;23.80;;
2570;SDS011;1295;51.130;6.732;2022-08-01T13:05:08;51.37;;;6.67;;
2570;SDS011;1295;51.130;6.732;2022-08-01T13:07:35;54.17;;;8.90;;
2570;SDS011;1295;51.130;6.732;2022-08-01T13:10:04;52.70;;;9.83;;
2570;SDS011;1295;51.130;6.732;2022-08-01T13:12:30;54.03;;;10.33;;
2570;SDS011;1295;51.130;6.732;2022-08-01T13:14:56;59.77;;;13.37;;
2570;SDS011;1295;51.130;6.732;2022-08-01T13:17:39;55.77;;;13.63;;
2570;SDS011;1295;51.130;6.732;2022-08-01T13:20:05;56.53;;;21.40;;
2570;SDS011;1295;51.130;6.732;2022-08-01T13:22:33;58.63;;;24.50;;
2570;SDS011;1295;51.130;6.732;2022-08-01T13:27:34;67.23;;;43.80;;
2570;SDS011;1295;51.130;6.732;2022-08-01T13:30:09;76.90;;;66.40;;
2570;SDS011;1295;51.130;6.732;2022-08-01T13:32:26;59.80;;;16.13;;
2570;SDS011;1295;51.130;6.732;2022-08-01T13:35:00;58.43;;;15.43;;
2570;SDS011;1295;51.130;6.732;2022-08-01T13:37:17;54.57;;;12.30;;
2570;SDS011;1295;51.130;6.732;2022-08-01T13:39:44;62.33;;;22.43;;
2570;SDS011;1295;51.130;6.732;2022-08-01T13:42:11;55.77;;;13.30;;
2570;SDS011;1295;51.130;6.732;2022-08-01T13:44:36;63.63;;;27.30;;
2570;SDS011;1295;51.130;6.732;2022-08-01T13:47:03;66.63;;;26.73;;
2570;SDS011;1295;51.130;6.732;2022-08-01T13:49:28;62.93;;;24.43;;
2570;SDS011;1295;51.130;6.732;2022-08-01T13:51:54;53.87;;;11.03;;
2570;SDS011;1295;51.130;6.732;2022-08-01T13:54:20;58.80;;;15.37;;
2570;SDS011;1295;51.130;6.732;2022-08-01T13:56:45;57.97;;;17.37;;
2570;SDS011;1295;51.130;6.732;2022-08-01T13:59:11;64.20;;;32.77;;
2570;SDS011;1295;51.130;6.732;2022-08-01T14:01:37;52.80;;;10.67;;
2570;SDS011;1295;51.130;6.732;2022-08-01T14:04:03;55.63;;;17.43;;
2570;SDS011;1295;51.130;6.732;2022-08-01T14:06:29;56.97;;;13.30;;
2570;SDS011;1295;51.130;6.732;2022-08-01T14:08:54;56.00;;;11.87;;
2570;SDS011;1295;51.130;6.732;2022-08-01T14:11:20;56.80;;;22.07;;
2570;SDS011;1295;51.130;6.732;2022-08-01T14:13:46;52.87;;;8.83;;
2570;SDS011;1295;51.130;6.732;2022-08-01T14:16:11;53.43;;;10.13;;
2570;SDS011;1295;51.130;6.732;2022-08-01T14:18:37;53.90;;;13.27;;
2570;SDS011;1295;51.130;6.732;2022-08-01T14:21:03;52.33;;;9.50;;
2570;SDS011;1295;51.130;6.732;2022-08-01T14:23:29;63.03;;;18.90;;
2570;SDS011;1295;51.130;6.732;2022-08-01T14:25:55;58.60;;;12.67;;
2570;SDS011;1295;51.130;6.732;2022-08-01T14:28:21;57.77;;;13.63;;
2570;SDS011;1295;51.130;6.732;2022-08-01T14:30:47;54.87;;;16.47;;
2570;SDS011;1295;51.130;6.732;2022-08-01T14:33:13;56.60;;;16.47;;
2570;SDS011;1295;51.130;6.732;2022-08-01T14:35:39;56.23;;;11.30;;
2570;SDS011;1295;51.130;6.732;2022-08-01T14:38:05;54.93;;;12.50;;
2570;SDS011;1295;51.130;6.732;2022-08-01T14:40:31;59.13;;;13.60;;
2570;SDS011;1295;51.130;6.732;2022-08-01T14:42:56;64.97;;;32.40;;
2570;SDS011;1295;51.130;6.732;2022-08-01T14:45:22;55.90;;;17.80;;